sensor_id;sensor_type;location;lat;lon;timestamp;pressure;altitude;pressure_sealevel;temperature;humidity
5500;BME280;2772;42.700;23.304;2023-04-15T00:02:00;94397.28;;;11.38;100.00
5500;BME280;2772;42.700;23.304;2023-04-15T00:04:27;94391.13;;;11.25;100.00
5500;BME280;2772;42.700;23.304;2023-04-15T00:06:55;94399.59;;;11.27;100.00
5500;BME280;2772;42.700;23.304;2023-04-15T00:09:23;94392.66;;;11.47;100.00
5500;BME280;2772;42.700;23.304;2023-04-15T00:11:50;94400.44;;;11.52;100.00
5500;BME280;2772;42.700;23.304;2023-04-15T00:14:17;94392.00;;;11.62;100.00
5500;BME280;2772;42.700;23.304;2023-04-15T00:16:44;94389.19;;;11.67;100.00
5500;BME280;2772;42.700;23.304;2023-04-15T00:19:10;94382.13;;;11.62;100.00
5500;BME280;2772;42.700;23.304;2023-04-15T00:21:37;94384.00;;;11.62;100.00
5500;BME280;2772;42.700;23.304;2023-04-15T00:24:04;94380.00;;;11.56;100.00
5500;BME280;2772;42.700;23.304;2023-04-15T00:26:32;94378.78;;;11.53;100.00
5500;BME280;2772;42.700;23.304;2023-04-15T00:29:00;94387.28;;;11.67;100.00
5500;BME280;2772;42.700;23.304;2023-04-15T00:31:26;94384.50;;;11.64;100.00
5500;BME280;2772;42.700;23.304;2023-04-15T00:33:53;94388.72;;;11.65;100.00
5500;BME280;2772;42.700;23.304;2023-04-15T00:36:20;94400.69;;;11.59;100.00
5500;BME280;2772;42.700;23.304;2023-04-15T00:38:47;94399.53;;;11.48;100.00
5500;BME280;2772;42.700;23.304;2023-04-15T00:41:14;94395.50;;;11.42;100.00
5500;BME280;2772;42.700;23.304;2023-04-15T00:43:42;94387.72;;;11.37;100.00
5500;BME280;2772;42.700;23.304;2023-04-15T00:46:12;94384.41;;;11.40;100.00
5500;BME280;2772;42.700;23.304;2023-04-15T00:48:41;94378.28;;;11.27;100.00
5500;BME280;2772;42.700;23.304;2023-04-15T00:51:08;94379.84;;;11.40;100.00
5500;BME280;2772;42.700;23.304;2023-04-15T00:53:35;94382.66;;;11.44;100.00
5500;BME280;2772;42.700;23.304;2023-04-15T00:56:01;94377.53;;;11.51;100.00
5500;BME280;2772;42.700;23.304;2023-04-15T00:58:28;94383.66;;;11.51;100.00
5500;BME280;2772;42.700;23.304;2023-04-15T01:00:56;94380.88;;;11.48;100.00
5500;BME280;2772;42.700;23.304;2023-04-15T01:03:24;94384.78;;;11.50;100.00
5500;BME280;2772;42.700;23.304;2023-04-15T01:05:51;94398.25;;;11.54;100.00
5500;BME280;2772;42.700;23.304;2023-04-15T01:08:23;94403.47;;;11.30;100.00
5500;BME280;2772;42.700;23.304;2023-04-15T01:10:52;94403.94;;;11.11;100.00
5500;BME280;2772;42.700;23.304;2023-04-15T01:13:19;94392.78;;;11.17;100.00
5500;BME280;2772;42.700;23.304;2023-04-15T01:15:46;94391.59;;;11.27;100.00
5500;BME280;2772;42.700;23.304;2023-04-15T01:18:14;94382.22;;;11.21;100.00
5500;BME280;2772;42.700;23.304;2023-04-15T01:20:41;94386.97;;;11.36;100.00
5500;BME280;2772;42.700;23.304;2023-04-15T01:23:08;94384.84;;;11.42;100.00
5500;BME280;2772;42.700;23.304;2023-04-15T01:25:37;94384.19;;;11.45;100.00
5500;BME280;2772;42.700;23.304;2023-04-15T01:28:04;94385.78;;;11.46;100.00
5500;BME280;2772;42.700;23.304;2023-04-15T01:30:33;94392.00;;;11.50;100.00
5500;BME280;2772;42.700;23.304;2023-04-15T01:32:59;94383.09;;;11.46;100.00
5500;BME280;2772;42.700;23.304;2023-04-15T01:35:27;94383.53;;;11.48;100.00
5500;BME280;2772;42.700;23.304;2023-04-15T01:37:57;94373.19;;;11.46;100.00
5500;BME280;2772;42.700;23.304;2023-04-15T01:40:28;94385.44;;;11.47;100.00
5500;BME280;2772;42.700;23.304;2023-04-15T01:42:57;94380.44;;;11.46;100.00
5500;BME280;2772;42.700;23.304;2023-04-15T01:45:23;94387.19;;;11.43;100.00
5500;BME280;2772;42.700;23.304;2023-04-15T01:47:50;94383.97;;;11.38;100.00
5500;BME280;2772;42.700;23.304;2023-04-15T01:50:17;94382.94;;;11.30;100.00
5500;BME280;2772;42.700;23.304;2023-04-15T01:52:44;94389.03;;;11.31;100.00
5500;BME280;2772;42.700;23.304;2023-04-15T01:55:12;94387.88;;;11.19;100.00
5500;BME280;2772;42.700;23.304;2023-04-15T01:57:38;94395.69;;;11.24;100.00
5500;BME280;2772;42.700;23.304;2023-04-15T02:00:07;94399.00;;;11.21;100.00
5500;BME280;2772;42.700;23.304;2023-04-15T02:02:34;94408.44;;;11.19;100.00
5500;BME280;2772;42.700;23.304;2023-04-15T02:05:01;94413.63;;;11.15;100.00
5500;BME280;2772;42.700;23.304;2023-04-15T02:07:29;94406.34;;;11.04;100.00
5500;BME280;2772;42.700;23.304;2023-04-15T02:09:57;94397.38;;;11.08;100.00
5500;BME280;2772;42.700;23.304;2023-04-15T02:12:23;94392.03;;;11.08;100.00
5500;BME280;2772;42.700;23.304;2023-04-15T02:14:51;94395.03;;;11.07;100.00
5500;BME280;2772;42.700;23.304;2023-04-15T02:17:19;94399.94;;;11.05;100.00
5500;BME280;2772;42.700;23.304;2023-04-15T02:19:46;94403.72;;;10.83;100.00
5500;BME280;2772;42.700;23.304;2023-04-15T02:22:13;94395.59;;;10.80;100.00
5500;BME280;2772;42.700;23.304;2023-04-15T02:24:43;94397.78;;;10.78;100.00
5500;BME280;2772;42.700;23.304;2023-04-15T02:27:10;94398.69;;;10.61;100.00
5500;BME280;2772;42.700;23.304;2023-04-15T02:29:36;94396.28;;;10.68;100.00
5500;BME280;2772;42.700;23.304;2023-04-15T02:32:04;94393.34;;;10.41;100.00
5500;BME280;2772;42.700;23.304;2023-04-15T02:34:32;94395.59;;;10.51;100.00
5500;BME280;2772;42.700;23.304;2023-04-15T02:36:59;94397.41;;;10.38;100.00
5500;BME280;2772;42.700;23.304;2023-04-15T02:39:28;94401.97;;;10.38;100.00
5500;BME280;2772;42.700;23.304;2023-04-15T02:41:54;94405.53;;;10.13;100.00
5500;BME280;2772;42.700;23.304;2023-04-15T02:44:23;94410.16;;;10.24;100.00
5500;BME280;2772;42.700;23.304;2023-04-15T02:46:50;94411.91;;;10.20;100.00
5500;BME280;2772;42.700;23.304;2023-04-15T02:49:19;94413.19;;;10.06;100.00
5500;BME280;2772;42.700;23.304;2023-04-15T02:51:47;94416.06;;;9.92;100.00
5500;BME280;2772;42.700;23.304;2023-04-15T02:54:14;94406.13;;;9.72;100.00
5500;BME280;2772;42.700;23.304;2023-04-15T02:56:40;94407.06;;;9.68;100.00
5500;BME280;2772;42.700;23.304;2023-04-15T02:59:07;94409.91;;;9.62;100.00
5500;BME280;2772;42.700;23.304;2023-04-15T03:01:34;94411.59;;;9.67;100.00
5500;BME280;2772;42.700;23.304;2023-04-15T03:04:00;94418.97;;;9.61;100.00
5500;BME280;2772;42.700;23.304;2023-04-15T03:06:27;94426.31;;;9.56;100.00
5500;BME280;2772;42.700;23.304;2023-04-15T03:08:55;94428.69;;;9.49;100.00
5500;BME280;2772;42.700;23.304;2023-04-15T03:11:24;94433.09;;;9.28;100.00
5500;BME280;2772;42.700;23.304;2023-04-15T03:13:51;94432.94;;;9.16;100.00
5500;BME280;2772;42.700;23.304;2023-04-15T03:16:18;94434.66;;;9.20;100.00
5500;BME280;2772;42.700;23.304;2023-04-15T03:18:44;94443.88;;;9.06;100.00
5500;BME280;2772;42.700;23.304;2023-04-15T03:21:13;94439.97;;;9.03;100.00
5500;BME280;2772;42.700;23.304;2023-04-15T03:23:40;94430.59;;;8.89;100.00
5500;BME280;2772;42.700;23.304;2023-04-15T03:26:08;94432.94;;;8.82;100.00
5500;BME280;2772;42.700;23.304;2023-04-15T03:28:35;94436.69;;;8.98;100.00
5500;BME280;2772;42.700;23.304;2023-04-15T03:31:01;94447.47;;;9.01;100.00
5500;BME280;2772;42.700;23.304;2023-04-15T03:33:28;94446.84;;;8.96;100.00
5500;BME280;2772;42.700;23.304;2023-04-15T03:35:55;94456.53;;;8.83;100.00
5500;BME280;2772;42.700;23.304;2023-04-15T03:38:21;94459.50;;;8.82;100.00
5500;BME280;2772;42.700;23.304;2023-04-15T03:40:48;94460.75;;;8.93;100.00
5500;BME280;2772;42.700;23.304;2023-04-15T03:43:16;94471.69;;;9.00;100.00
5500;BME280;2772;42.700;23.304;2023-04-15T03:45:43;94474.47;;;8.95;100.00
5500;BME280;2772;42.700;23.304;2023-04-15T03:48:09;94477.44;;;8.93;100.00
5500;BME280;2772;42.700;23.304;2023-04-15T03:50:36;94475.75;;;8.80;100.00
5500;BME280;2772;42.700;23.304;2023-04-15T03:53:03;94486.66;;;8.79;100.00
5500;BME280;2772;42.700;23.304;2023-04-15T03:55:29;94484.13;;;8.65;100.00
5500;BME280;2772;42.700;23.304;2023-04-15T03:57:56;94486.81;;;8.82;100.00
5500;BME280;2772;42.700;23.304;2023-04-15T04:00:24;94471.19;;;8.81;100.00
5500;BME280;2772;42.700;23.304;2023-04-15T04:02:51;94483.84;;;8.84;100.00
5500;BME280;2772;42.700;23.304;2023-04-15T04:05:17;94471.50;;;8.79;100.00
5500;BME280;2772;42.700;23.304;2023-04-15T04:07:44;94473.41;;;8.79;100.00
5500;BME280;2772;42.700;23.304;2023-04-15T04:10:11;94483.31;;;8.48;100.00
5500;BME280;2772;42.700;23.304;2023-04-15T04:12:38;94472.06;;;8.12;100.00
5500;BME280;2772;42.700;23.304;2023-04-15T04:15:06;94467.16;;;8.27;100.00
5500;BME280;2772;42.700;23.304;2023-04-15T04:17:34;94468.81;;;8.15;100.00
5500;BME280;2772;42.700;23.304;2023-04-15T04:20:01;94469.06;;;8.04;100.00
5500;BME280;2772;42.700;23.304;2023-04-15T04:22:27;94468.44;;;7.99;100.00
5500;BME280;2772;42.700;23.304;2023-04-15T04:24:54;94469.34;;;7.94;100.00
5500;BME280;2772;42.700;23.304;2023-04-15T04:27:21;94473.00;;;8.16;100.00
5500;BME280;2772;42.700;23.304;2023-04-15T04:29:47;94476.69;;;8.28;100.00
5500;BME280;2772;42.700;23.304;2023-04-15T04:32:14;94474.81;;;8.29;100.00
5500;BME280;2772;42.700;23.304;2023-04-15T04:34:42;94476.38;;;8.30;100.00
5500;BME280;2772;42.700;23.304;2023-04-15T04:37:09;94470.81;;;8.48;100.00
5500;BME280;2772;42.700;23.304;2023-04-15T04:39:35;94475.97;;;8.53;100.00
5500;BME280;2772;42.700;23.304;2023-04-15T04:42:02;94479.31;;;8.76;100.00
5500;BME280;2772;42.700;23.304;2023-04-15T04:44:29;94481.66;;;8.77;100.00
5500;BME280;2772;42.700;23.304;2023-04-15T04:46:55;94485.88;;;8.78;100.00
5500;BME280;2772;42.700;23.304;2023-04-15T04:49:22;94491.03;;;8.92;100.00
5500;BME280;2772;42.700;23.304;2023-04-15T04:51:50;94502.16;;;8.94;100.00
5500;BME280;2772;42.700;23.304;2023-04-15T04:54:17;94496.69;;;8.99;100.00
5500;BME280;2772;42.700;23.304;2023-04-15T04:56:44;94497.00;;;8.97;100.00
5500;BME280;2772;42.700;23.304;2023-04-15T04:59:11;94503.25;;;9.01;100.00
5500;BME280;2772;42.700;23.304;2023-04-15T05:01:38;94509.50;;;9.14;100.00
5500;BME280;2772;42.700;23.304;2023-04-15T05:04:05;94508.88;;;9.17;100.00
5500;BME280;2772;42.700;23.304;2023-04-15T05:06:32;94512.50;;;9.21;100.00
5500;BME280;2772;42.700;23.304;2023-04-15T05:09:02;94517.16;;;9.15;100.00
5500;BME280;2772;42.700;23.304;2023-04-15T05:11:29;94518.59;;;9.30;100.00
5500;BME280;2772;42.700;23.304;2023-04-15T05:13:55;94524.97;;;9.29;100.00
5500;BME280;2772;42.700;23.304;2023-04-15T05:16:24;94530.16;;;9.34;100.00
5500;BME280;2772;42.700;23.304;2023-04-15T05:18:51;94540.31;;;9.40;100.00
5500;BME280;2772;42.700;23.304;2023-04-15T05:21:17;94540.47;;;9.44;100.00
5500;BME280;2772;42.700;23.304;2023-04-15T05:23:44;94545.78;;;9.61;100.00
5500;BME280;2772;42.700;23.304;2023-04-15T05:26:12;94551.72;;;9.66;100.00
5500;BME280;2772;42.700;23.304;2023-04-15T05:28:39;94545.00;;;9.69;100.00
5500;BME280;2772;42.700;23.304;2023-04-15T05:31:06;94544.97;;;9.78;100.00
5500;BME280;2772;42.700;23.304;2023-04-15T05:33:33;94544.53;;;9.67;100.00
5500;BME280;2772;42.700;23.304;2023-04-15T05:36:00;94542.47;;;9.81;100.00
5500;BME280;2772;42.700;23.304;2023-04-15T05:38:26;94538.25;;;9.89;100.00
5500;BME280;2772;42.700;23.304;2023-04-15T05:40:53;94534.31;;;10.12;100.00
5500;BME280;2772;42.700;23.304;2023-04-15T05:43:21;94527.75;;;10.18;100.00
5500;BME280;2772;42.700;23.304;2023-04-15T05:45:48;94536.16;;;10.28;100.00
5500;BME280;2772;42.700;23.304;2023-04-15T05:48:15;94544.63;;;10.30;100.00
5500;BME280;2772;42.700;23.304;2023-04-15T05:50:41;94548.03;;;10.39;100.00
5500;BME280;2772;42.700;23.304;2023-04-15T05:53:08;94558.50;;;10.44;100.00
5500;BME280;2772;42.700;23.304;2023-04-15T05:55:35;94556.91;;;10.52;100.00
5500;BME280;2772;42.700;23.304;2023-04-15T05:58:01;94556.88;;;10.60;100.00
5500;BME280;2772;42.700;23.304;2023-04-15T06:00:30;94557.16;;;10.67;100.00
5500;BME280;2772;42.700;23.304;2023-04-15T06:02:57;94564.34;;;10.75;100.00
5500;BME280;2772;42.700;23.304;2023-04-15T06:05:24;94553.78;;;10.87;100.00
5500;BME280;2772;42.700;23.304;2023-04-15T06:07:51;94563.78;;;10.90;100.00
5500;BME280;2772;42.700;23.304;2023-04-15T06:10:17;94559.84;;;10.96;100.00
5500;BME280;2772;42.700;23.304;2023-04-15T06:12:44;94570.78;;;11.03;100.00
5500;BME280;2772;42.700;23.304;2023-04-15T06:15:12;94570.16;;;11.06;100.00
5500;BME280;2772;42.700;23.304;2023-04-15T06:17:40;94578.22;;;11.18;100.00
5500;BME280;2772;42.700;23.304;2023-04-15T06:20:07;94581.09;;;11.34;100.00
5500;BME280;2772;42.700;23.304;2023-04-15T06:22:35;94584.63;;;11.47;100.00
5500;BME280;2772;42.700;23.304;2023-04-15T06:25:03;94578.78;;;11.53;100.00
5500;BME280;2772;42.700;23.304;2023-04-15T06:27:30;94583.88;;;11.67;100.00
5500;BME280;2772;42.700;23.304;2023-04-15T06:29:56;94591.69;;;11.72;100.00
5500;BME280;2772;42.700;23.304;2023-04-15T06:32:23;94586.16;;;11.77;100.00
5500;BME280;2772;42.700;23.304;2023-04-15T06:34:51;94594.41;;;11.84;100.00
5500;BME280;2772;42.700;23.304;2023-04-15T06:37:18;94592.25;;;11.98;100.00
5500;BME280;2772;42.700;23.304;2023-04-15T06:39:45;94593.63;;;12.04;100.00
5500;BME280;2772;42.700;23.304;2023-04-15T06:42:12;94605.69;;;12.10;100.00
5500;BME280;2772;42.700;23.304;2023-04-15T06:44:38;94593.88;;;12.11;100.00
5500;BME280;2772;42.700;23.304;2023-04-15T06:47:05;94603.13;;;12.13;100.00
5500;BME280;2772;42.700;23.304;2023-04-15T06:49:33;94606.63;;;12.26;100.00
5500;BME280;2772;42.700;23.304;2023-04-15T06:52:01;94608.91;;;12.48;100.00
5500;BME280;2772;42.700;23.304;2023-04-15T06:54:29;94602.72;;;12.56;100.00
5500;BME280;2772;42.700;23.304;2023-04-15T06:56:55;94607.41;;;12.71;100.00
5500;BME280;2772;42.700;23.304;2023-04-15T06:59:22;94602.44;;;12.82;100.00
5500;BME280;2772;42.700;23.304;2023-04-15T07:01:49;94598.59;;;13.03;100.00
5500;BME280;2772;42.700;23.304;2023-04-15T07:04:16;94596.34;;;13.17;98.17
5500;BME280;2772;42.700;23.304;2023-04-15T07:06:43;94591.00;;;13.17;93.28
5500;BME280;2772;42.700;23.304;2023-04-15T07:09:11;94590.00;;;13.22;92.59
5500;BME280;2772;42.700;23.304;2023-04-15T07:11:38;94597.56;;;13.20;92.40
5500;BME280;2772;42.700;23.304;2023-04-15T07:14:05;94589.44;;;13.28;93.83
5500;BME280;2772;42.700;23.304;2023-04-15T07:16:32;94588.13;;;13.22;92.86
5500;BME280;2772;42.700;23.304;2023-04-15T07:18:58;94588.00;;;13.31;93.52
5500;BME280;2772;42.700;23.304;2023-04-15T07:21:25;94599.13;;;13.33;94.43
5500;BME280;2772;42.700;23.304;2023-04-15T07:23:53;94592.09;;;13.40;91.43
5500;BME280;2772;42.700;23.304;2023-04-15T07:26:21;94598.78;;;13.46;89.50
5500;BME280;2772;42.700;23.304;2023-04-15T07:28:48;94597.09;;;13.54;88.42
5500;BME280;2772;42.700;23.304;2023-04-15T07:31:15;94600.53;;;13.66;87.88
5500;BME280;2772;42.700;23.304;2023-04-15T07:33:41;94595.50;;;13.77;86.21
5500;BME280;2772;42.700;23.304;2023-04-15T07:36:08;94597.25;;;13.85;84.63
5500;BME280;2772;42.700;23.304;2023-04-15T07:38:35;94593.00;;;13.96;85.04
5500;BME280;2772;42.700;23.304;2023-04-15T07:41:02;94595.19;;;14.06;83.24
5500;BME280;2772;42.700;23.304;2023-04-15T07:43:30;94592.41;;;14.02;79.22
5500;BME280;2772;42.700;23.304;2023-04-15T07:45:57;94598.63;;;14.18;81.47
5500;BME280;2772;42.700;23.304;2023-04-15T07:48:24;94594.81;;;14.32;78.57
5500;BME280;2772;42.700;23.304;2023-04-15T07:50:51;94605.22;;;14.49;80.25
5500;BME280;2772;42.700;23.304;2023-04-15T07:53:17;94609.91;;;14.40;77.16
5500;BME280;2772;42.700;23.304;2023-04-15T07:55:44;94605.22;;;14.49;76.00
5500;BME280;2772;42.700;23.304;2023-04-15T07:58:11;94612.91;;;14.50;74.32
5500;BME280;2772;42.700;23.304;2023-04-15T08:00:39;94620.09;;;14.62;76.62
5500;BME280;2772;42.700;23.304;2023-04-15T08:03:06;94622.59;;;14.55;75.20
5500;BME280;2772;42.700;23.304;2023-04-15T08:05:32;94615.28;;;14.67;75.65
5500;BME280;2772;42.700;23.304;2023-04-15T08:07:59;94613.34;;;14.68;73.26
5500;BME280;2772;42.700;23.304;2023-04-15T08:10:27;94615.19;;;14.79;73.19
5500;BME280;2772;42.700;23.304;2023-04-15T08:12:54;94616.41;;;14.82;72.90
5500;BME280;2772;42.700;23.304;2023-04-15T08:15:21;94614.00;;;14.92;70.18
5500;BME280;2772;42.700;23.304;2023-04-15T08:17:49;94610.03;;;15.02;68.59
5500;BME280;2772;42.700;23.304;2023-04-15T08:20:16;94617.41;;;15.05;66.66
5500;BME280;2772;42.700;23.304;2023-04-15T08:22:43;94611.41;;;15.11;67.47
5500;BME280;2772;42.700;23.304;2023-04-15T08:25:10;94615.31;;;15.29;67.69
5500;BME280;2772;42.700;23.304;2023-04-15T08:27:37;94608.06;;;15.45;64.90
5500;BME280;2772;42.700;23.304;2023-04-15T08:30:05;94613.41;;;15.61;62.44
5500;BME280;2772;42.700;23.304;2023-04-15T08:32:32;94605.13;;;15.69;60.15
5500;BME280;2772;42.700;23.304;2023-04-15T08:35:00;94604.59;;;15.79;60.14
5500;BME280;2772;42.700;23.304;2023-04-15T08:37:27;94597.22;;;15.92;59.17
5500;BME280;2772;42.700;23.304;2023-04-15T08:39:53;94591.41;;;15.90;56.51
5500;BME280;2772;42.700;23.304;2023-04-15T08:42:25;94589.44;;;16.06;58.99
5500;BME280;2772;42.700;23.304;2023-04-15T08:44:54;94595.22;;;16.08;56.21
5500;BME280;2772;42.700;23.304;2023-04-15T08:47:21;94602.88;;;16.06;54.54
5500;BME280;2772;42.700;23.304;2023-04-15T08:49:53;94596.00;;;16.09;55.44
5500;BME280;2772;42.700;23.304;2023-04-15T08:52:23;94603.63;;;15.88;56.13
5500;BME280;2772;42.700;23.304;2023-04-15T08:54:51;94596.91;;;15.78;55.89
5500;BME280;2772;42.700;23.304;2023-04-15T08:57:18;94592.25;;;15.94;56.34
5500;BME280;2772;42.700;23.304;2023-04-15T08:59:46;94592.31;;;15.98;58.12
5500;BME280;2772;42.700;23.304;2023-04-15T09:02:14;94586.03;;;16.09;57.19
5500;BME280;2772;42.700;23.304;2023-04-15T09:04:40;94588.94;;;16.20;57.14
5500;BME280;2772;42.700;23.304;2023-04-15T09:07:07;94584.56;;;16.31;53.16
5500;BME280;2772;42.700;23.304;2023-04-15T09:09:35;94572.97;;;16.46;51.99
5500;BME280;2772;42.700;23.304;2023-04-15T09:12:04;94579.38;;;16.41;52.03
5500;BME280;2772;42.700;23.304;2023-04-15T09:14:31;94568.44;;;16.50;53.47
5500;BME280;2772;42.700;23.304;2023-04-15T09:17:00;94565.69;;;16.46;55.88
5500;BME280;2772;42.700;23.304;2023-04-15T09:19:28;94565.69;;;16.46;53.97
5500;BME280;2772;42.700;23.304;2023-04-15T09:21:57;94561.94;;;16.51;53.44
5500;BME280;2772;42.700;23.304;2023-04-15T09:24:24;94564.25;;;16.52;54.42
5500;BME280;2772;42.700;23.304;2023-04-15T09:26:54;94557.09;;;16.60;54.82
5500;BME280;2772;42.700;23.304;2023-04-15T09:29:24;94565.59;;;16.62;54.14
5500;BME280;2772;42.700;23.304;2023-04-15T09:31:51;94557.59;;;16.65;53.60
5500;BME280;2772;42.700;23.304;2023-04-15T09:34:18;94559.19;;;16.70;53.50
5500;BME280;2772;42.700;23.304;2023-04-15T09:36:53;94567.34;;;16.73;52.69
5500;BME280;2772;42.700;23.304;2023-04-15T09:39:20;94560.63;;;16.86;52.05
5500;BME280;2772;42.700;23.304;2023-04-15T09:42:04;94562.03;;;16.99;50.85
5500;BME280;2772;42.700;23.304;2023-04-15T09:44:32;94561.53;;;17.16;50.67
5500;BME280;2772;42.700;23.304;2023-04-15T09:46:59;94563.72;;;17.33;50.39
5500;BME280;2772;42.700;23.304;2023-04-15T09:49:26;94559.41;;;17.52;50.35
5500;BME280;2772;42.700;23.304;2023-04-15T09:51:57;94562.41;;;17.73;49.19
5500;BME280;2772;42.700;23.304;2023-04-15T09:54:24;94552.78;;;17.75;49.00
5500;BME280;2772;42.700;23.304;2023-04-15T09:56:50;94562.13;;;17.81;48.69
5500;BME280;2772;42.700;23.304;2023-04-15T09:59:18;94559.69;;;17.73;49.07
5500;BME280;2772;42.700;23.304;2023-04-15T10:01:45;94559.81;;;17.80;47.48
5500;BME280;2772;42.700;23.304;2023-04-15T10:04:12;94559.69;;;17.73;45.73
5500;BME280;2772;42.700;23.304;2023-04-15T10:06:39;94560.56;;;17.80;45.71
5500;BME280;2772;42.700;23.304;2023-04-15T10:09:07;94562.50;;;17.80;46.15
5500;BME280;2772;42.700;23.304;2023-04-15T10:11:34;94559.88;;;17.87;44.10
5500;BME280;2772;42.700;23.304;2023-04-15T10:14:01;94554.50;;;17.87;43.74
5500;BME280;2772;42.700;23.304;2023-04-15T10:16:31;94554.19;;;17.92;42.44
5500;BME280;2772;42.700;23.304;2023-04-15T10:19:00;94539.75;;;18.07;42.21
5500;BME280;2772;42.700;23.304;2023-04-15T10:21:29;94535.38;;;18.28;41.89
5500;BME280;2772;42.700;23.304;2023-04-15T10:23:57;94539.16;;;18.20;42.02
5500;BME280;2772;42.700;23.304;2023-04-15T10:26:23;94532.81;;;18.06;39.54
5500;BME280;2772;42.700;23.304;2023-04-15T10:28:50;94529.69;;;18.04;38.21
5500;BME280;2772;42.700;23.304;2023-04-15T10:31:19;94529.38;;;18.09;38.78
5500;BME280;2772;42.700;23.304;2023-04-15T10:33:48;94528.00;;;18.25;39.42
5500;BME280;2772;42.700;23.304;2023-04-15T10:36:15;94524.44;;;18.47;39.99
5500;BME280;2772;42.700;23.304;2023-04-15T10:38:43;94525.41;;;18.69;40.11
5500;BME280;2772;42.700;23.304;2023-04-15T10:41:18;94521.59;;;18.73;38.47
5500;BME280;2772;42.700;23.304;2023-04-15T10:43:47;94519.41;;;18.86;37.28
5500;BME280;2772;42.700;23.304;2023-04-15T10:46:17;94528.59;;;18.78;38.11
5500;BME280;2772;42.700;23.304;2023-04-15T10:48:50;94527.97;;;18.55;39.08
5500;BME280;2772;42.700;23.304;2023-04-15T10:51:29;94511.06;;;18.58;39.83
5500;BME280;2772;42.700;23.304;2023-04-15T10:53:56;94521.56;;;18.66;39.94
5500;BME280;2772;42.700;23.304;2023-04-15T10:56:24;94522.47;;;18.44;40.91
5500;BME280;2772;42.700;23.304;2023-04-15T10:58:51;94507.97;;;18.56;41.10
5500;BME280;2772;42.700;23.304;2023-04-15T11:01:19;94508.72;;;18.56;41.95
5500;BME280;2772;42.700;23.304;2023-04-15T11:03:47;94501.38;;;18.50;40.60
5500;BME280;2772;42.700;23.304;2023-04-15T11:06:16;94500.25;;;18.58;41.54
5500;BME280;2772;42.700;23.304;2023-04-15T11:08:54;94506.91;;;18.64;40.14
5500;BME280;2772;42.700;23.304;2023-04-15T11:11:21;94501.31;;;18.46;39.96
5500;BME280;2772;42.700;23.304;2023-04-15T11:13:49;94494.91;;;18.61;40.03
5500;BME280;2772;42.700;23.304;2023-04-15T11:16:17;94494.16;;;18.64;40.11
5500;BME280;2772;42.700;23.304;2023-04-15T11:18:52;94497.19;;;18.56;40.79
5500;BME280;2772;42.700;23.304;2023-04-15T11:21:23;94493.41;;;18.67;41.25
5500;BME280;2772;42.700;23.304;2023-04-15T11:23:51;94488.38;;;18.66;40.22
5500;BME280;2772;42.700;23.304;2023-04-15T11:26:17;94498.19;;;18.81;41.06
5500;BME280;2772;42.700;23.304;2023-04-15T11:28:45;94494.44;;;18.96;41.27
5500;BME280;2772;42.700;23.304;2023-04-15T11:31:13;94497.56;;;18.98;40.37
5500;BME280;2772;42.700;23.304;2023-04-15T11:33:44;94486.34;;;18.96;40.42
5500;BME280;2772;42.700;23.304;2023-04-15T11:36:12;94487.88;;;18.97;40.22
5500;BME280;2772;42.700;23.304;2023-04-15T11:38:43;94494.16;;;19.12;39.70
5500;BME280;2772;42.700;23.304;2023-04-15T11:41:10;94486.38;;;19.00;37.48
5500;BME280;2772;42.700;23.304;2023-04-15T11:43:37;94489.91;;;19.07;36.81
5500;BME280;2772;42.700;23.304;2023-04-15T11:46:04;94476.41;;;19.07;38.31
5500;BME280;2772;42.700;23.304;2023-04-15T11:48:32;94495.72;;;19.13;38.49
5500;BME280;2772;42.700;23.304;2023-04-15T11:51:00;94490.41;;;19.23;38.79
5500;BME280;2772;42.700;23.304;2023-04-15T11:53:36;94491.13;;;19.17;39.00
5500;BME280;2772;42.700;23.304;2023-04-15T11:56:05;94484.16;;;19.16;40.82
5500;BME280;2772;42.700;23.304;2023-04-15T11:58:33;94492.25;;;19.12;38.13
5500;BME280;2772;42.700;23.304;2023-04-15T12:01:00;94486.50;;;19.17;39.75
5500;BME280;2772;42.700;23.304;2023-04-15T12:03:29;94498.09;;;19.21;37.77
5500;BME280;2772;42.700;23.304;2023-04-15T12:06:06;94490.34;;;19.16;37.99
5500;BME280;2772;42.700;23.304;2023-04-15T12:08:56;94488.44;;;19.17;36.92
5500;BME280;2772;42.700;23.304;2023-04-15T12:11:30;94492.72;;;19.25;37.51
5500;BME280;2772;42.700;23.304;2023-04-15T12:13:58;94487.31;;;19.21;36.90
5500;BME280;2772;42.700;23.304;2023-04-15T12:16:28;94489.53;;;19.09;36.86
5500;BME280;2772;42.700;23.304;2023-04-15T12:18:56;94484.88;;;19.06;36.78
5500;BME280;2772;42.700;23.304;2023-04-15T12:21:25;94483.34;;;19.08;36.94
5500;BME280;2772;42.700;23.304;2023-04-15T12:23:53;94479.88;;;19.11;38.22
5500;BME280;2772;42.700;23.304;2023-04-15T12:26:25;94479.44;;;19.02;36.73
5500;BME280;2772;42.700;23.304;2023-04-15T12:28:54;94487.09;;;18.93;36.61
5500;BME280;2772;42.700;23.304;2023-04-15T12:31:21;94488.59;;;18.87;36.42
5500;BME280;2772;42.700;23.304;2023-04-15T12:33:48;94490.50;;;18.86;36.78
5500;BME280;2772;42.700;23.304;2023-04-15T12:36:15;94488.81;;;19.15;37.00
5500;BME280;2772;42.700;23.304;2023-04-15T12:38:42;94494.28;;;19.26;37.77
5500;BME280;2772;42.700;23.304;2023-04-15T12:41:09;94489.03;;;19.43;36.24
5500;BME280;2772;42.700;23.304;2023-04-15T12:43:35;94497.91;;;19.47;36.83
5500;BME280;2772;42.700;23.304;2023-04-15T12:46:03;94497.63;;;19.59;36.90
5500;BME280;2772;42.700;23.304;2023-04-15T12:48:31;94490.28;;;19.63;36.90
5500;BME280;2772;42.700;23.304;2023-04-15T12:50:58;94495.81;;;19.23;36.17
5500;BME280;2772;42.700;23.304;2023-04-15T12:53:25;94504.22;;;19.15;36.78
5500;BME280;2772;42.700;23.304;2023-04-15T12:55:51;94493.09;;;19.20;36.54
5500;BME280;2772;42.700;23.304;2023-04-15T12:58:18;94498.16;;;19.28;37.00
5500;BME280;2772;42.700;23.304;2023-04-15T13:00:45;94496.59;;;19.27;35.75
5500;BME280;2772;42.700;23.304;2023-04-15T13:03:13;94502.31;;;19.15;36.19
5500;BME280;2772;42.700;23.304;2023-04-15T13:05:40;94492.66;;;19.18;36.38
5500;BME280;2772;42.700;23.304;2023-04-15T13:08:07;94492.28;;;19.19;36.80
5500;BME280;2772;42.700;23.304;2023-04-15T13:10:34;94502.00;;;19.27;37.43